PWSweather.com
Personal Weather Stations
Station Observations
METEOBREDA
City, BredaNL 4824KH

CityBredaNL 4824KH

Lat: 51.6128536, Lon: 4.7426793

Elevation: 7

Station Type: WS4000(WH1080)

http://www.meteobreda.nl

High Low Average
Temperature 69.1°F20.6°C 51.3°F10.7°C 58.8°F14.9°C
Dew Point 52.3°F11.3°C 38.8°F3.8°C 45.9°F7.7°C
Winds 8.3 mph 13.4 kmh Calm Calm 2.0 mph SE3.2 kmh SE
Wind Gusts 13.6 mph21.9 kmh 0.7 mph1.1 kmh 7.0 mph11.3 kmh
Humidity 80% 46% 63%
Pressure 29.82 in1009.8 mb 29.65 in1004.1 mb -
Precipitation 0.00 in0.0 mm - -
Hour Temp Dew Point Humidity Winds Wind Gusts Pressure Precip Precip Rate Daily Precip Total
12:15 AM 54.7°F12.6°C 38.8°F3.8°C 55% 2.2 mph E3.5 kmh E 6.0 mph9.7 kmh 29.82 in1009.8 mb 0.00 in0.0 mm 0.00 in/hr0.0 mm/hr 0.00 in0.0 mm
12:20 AM 54.7°F12.6°C 38.8°F3.8°C 55% 3.1 mph E5.0 kmh E 5.4 mph8.7 kmh 29.81 in1009.5 mb 0.00 in0.0 mm 0.00 in/hr0.0 mm/hr 0.00 in0.0 mm
12:25 AM 54.7°F12.6°C 38.8°F3.8°C 55% 3.8 mph E6.1 kmh E 6.0 mph9.7 kmh 29.81 in1009.5 mb 0.00 in0.0 mm 0.00 in/hr0.0 mm/hr 0.00 in0.0 mm
12:30 AM 54.5°F12.5°C 39.1°F3.9°C 56% 3.1 mph E5.0 kmh E 6.0 mph9.7 kmh 29.81 in1009.5 mb 0.00 in0.0 mm 0.00 in/hr0.0 mm/hr 0.00 in0.0 mm
12:35 AM 54.5°F12.5°C 39.1°F3.9°C 56% 1.6 mph E2.6 kmh E 6.0 mph9.7 kmh 29.81 in1009.5 mb 0.00 in0.0 mm 0.00 in/hr0.0 mm/hr 0.00 in0.0 mm
12:40 AM 54.5°F12.5°C 39.1°F3.9°C 56% 2.2 mph E3.5 kmh E 6.0 mph9.7 kmh 29.81 in1009.5 mb 0.00 in0.0 mm 0.00 in/hr0.0 mm/hr 0.00 in0.0 mm
12:45 AM 54.5°F12.5°C 39.1°F3.9°C 56% 2.2 mph E3.5 kmh E 6.0 mph9.7 kmh 29.81 in1009.5 mb 0.00 in0.0 mm 0.00 in/hr0.0 mm/hr 0.00 in0.0 mm
12:50 AM 54.5°F12.5°C 39.1°F3.9°C 56% 0.7 mph E1.1 kmh E 5.4 mph8.7 kmh 29.81 in1009.5 mb 0.00 in0.0 mm 0.00 in/hr0.0 mm/hr 0.00 in0.0 mm
12:55 AM 54.5°F12.5°C 39.1°F3.9°C 56% 0.7 mph E1.1 kmh E 5.4 mph8.7 kmh 29.80 in1009.1 mb 0.00 in0.0 mm 0.00 in/hr0.0 mm/hr 0.00 in0.0 mm
01:00 AM 54.5°F12.5°C 39.6°F4.2°C 57% 0.7 mph E1.1 kmh E 6.9 mph11.1 kmh 29.80 in1009.1 mb 0.00 in0.0 mm 0.00 in/hr0.0 mm/hr 0.00 in0.0 mm
01:05 AM 54.5°F12.5°C 39.6°F4.2°C 57% 0.7 mph E1.1 kmh E 6.9 mph11.1 kmh 29.79 in1008.8 mb 0.00 in0.0 mm 0.00 in/hr0.0 mm/hr 0.00 in0.0 mm
01:10 AM 54.5°F12.5°C 39.1°F3.9°C 56% 0.7 mph E1.1 kmh E 3.8 mph6.1 kmh 29.80 in1009.1 mb 0.00 in0.0 mm 0.00 in/hr0.0 mm/hr 0.00 in0.0 mm
01:15 AM 54.5°F12.5°C 39.1°F3.9°C 56% 1.6 mph E2.6 kmh E 4.5 mph7.2 kmh 29.79 in1008.8 mb 0.00 in0.0 mm 0.00 in/hr0.0 mm/hr 0.00 in0.0 mm
01:20 AM 54.5°F12.5°C 39.1°F3.9°C 56% 1.6 mph E2.6 kmh E 5.4 mph8.7 kmh 29.79 in1008.8 mb 0.00 in0.0 mm 0.00 in/hr0.0 mm/hr 0.00 in0.0 mm
01:25 AM 54.3°F12.4°C 39.4°F4.1°C 57% 1.6 mph E2.6 kmh E 5.4 mph8.7 kmh 29.79 in1008.8 mb 0.00 in0.0 mm 0.00 in/hr0.0 mm/hr 0.00 in0.0 mm
01:30 AM 54.3°F12.4°C 39.4°F4.1°C 57% 0.7 mph E1.1 kmh E 5.4 mph8.7 kmh 29.79 in1008.8 mb 0.00 in0.0 mm 0.00 in/hr0.0 mm/hr 0.00 in0.0 mm
01:35 AM 54.3°F12.4°C 39.4°F4.1°C 57% 1.6 mph E2.6 kmh E 4.5 mph7.2 kmh 29.79 in1008.8 mb 0.00 in0.0 mm 0.00 in/hr0.0 mm/hr 0.00 in0.0 mm
01:40 AM 54.3°F12.4°C 39.9°F4.4°C 58% 1.6 mph E2.6 kmh E 5.4 mph8.7 kmh 29.78 in1008.5 mb 0.00 in0.0 mm 0.00 in/hr0.0 mm/hr 0.00 in0.0 mm
01:45 AM 54.1°F12.3°C 40.1°F4.5°C 59% 0.7 mph E1.1 kmh E 5.4 mph8.7 kmh 29.78 in1008.5 mb 0.00 in0.0 mm 0.00 in/hr0.0 mm/hr 0.00 in0.0 mm
01:50 AM 53.8°F12.1°C 39.8°F4.3°C 59% 1.6 mph ENE2.6 kmh ENE 3.1 mph5.0 kmh 29.78 in1008.5 mb 0.00 in0.0 mm 0.00 in/hr0.0 mm/hr 0.00 in0.0 mm
01:55 AM 53.8°F12.1°C 40.2°F4.6°C 60% Calm Calm 4.5 mph7.2 kmh 29.77 in1008.1 mb 0.00 in0.0 mm 0.00 in/hr0.0 mm/hr 0.00 in0.0 mm
02:00 AM 53.6°F12.0°C 40.1°F4.5°C 60% 1.6 mph ENE2.6 kmh ENE 4.5 mph7.2 kmh 29.77 in1008.1 mb 0.00 in0.0 mm 0.00 in/hr0.0 mm/hr 0.00 in0.0 mm
02:05 AM 53.6°F12.0°C 40.1°F4.5°C 60% 1.6 mph NE2.6 kmh NE 4.5 mph7.2 kmh 29.77 in1008.1 mb 0.00 in0.0 mm 0.00 in/hr0.0 mm/hr 0.00 in0.0 mm
02:10 AM 53.4°F11.9°C 39.9°F4.4°C 60% 0.7 mph NE1.1 kmh NE 5.4 mph8.7 kmh 29.77 in1008.1 mb 0.00 in0.0 mm 0.00 in/hr0.0 mm/hr 0.00 in0.0 mm
02:15 AM 53.4°F11.9°C 39.9°F4.4°C 60% 0.7 mph NE1.1 kmh NE 5.4 mph8.7 kmh 29.77 in1008.1 mb 0.00 in0.0 mm 0.00 in/hr0.0 mm/hr 0.00 in0.0 mm
02:20 AM 53.4°F11.9°C 39.9°F4.4°C 60% 1.6 mph E2.6 kmh E 6.9 mph11.1 kmh 29.76 in1007.8 mb 0.00 in0.0 mm 0.00 in/hr0.0 mm/hr 0.00 in0.0 mm
02:25 AM 53.4°F11.9°C 39.9°F4.4°C 60% 0.7 mph E1.1 kmh E 6.9 mph11.1 kmh 29.76 in1007.8 mb 0.00 in0.0 mm 0.00 in/hr0.0 mm/hr 0.00 in0.0 mm
02:30 AM 53.2°F11.8°C 39.7°F4.3°C 60% Calm Calm 6.0 mph9.7 kmh 29.76 in1007.8 mb 0.00 in0.0 mm 0.00 in/hr0.0 mm/hr 0.00 in0.0 mm
02:35 AM 53.2°F11.8°C 39.7°F4.3°C 60% 2.2 mph E3.5 kmh E 6.0 mph9.7 kmh 29.76 in1007.8 mb 0.00 in0.0 mm 0.00 in/hr0.0 mm/hr 0.00 in0.0 mm
02:40 AM 53.2°F11.8°C 39.7°F4.3°C 60% 1.6 mph E2.6 kmh E 6.0 mph9.7 kmh 29.75 in1007.5 mb 0.00 in0.0 mm 0.00 in/hr0.0 mm/hr 0.00 in0.0 mm
02:45 AM 53.2°F11.8°C 39.7°F4.3°C 60% 0.7 mph E1.1 kmh E 6.0 mph9.7 kmh 29.76 in1007.8 mb 0.00 in0.0 mm 0.00 in/hr0.0 mm/hr 0.00 in0.0 mm
02:50 AM 53.2°F11.8°C 39.7°F4.3°C 60% 2.2 mph ESE3.5 kmh ESE 6.0 mph9.7 kmh 29.75 in1007.5 mb 0.00 in0.0 mm 0.00 in/hr0.0 mm/hr 0.00 in0.0 mm
02:55 AM 53.2°F11.8°C 39.7°F4.3°C 60% 4.5 mph E7.2 kmh E 6.9 mph11.1 kmh 29.75 in1007.5 mb 0.00 in0.0 mm 0.00 in/hr0.0 mm/hr 0.00 in0.0 mm
03:00 AM 53.1°F11.7°C 39.6°F4.2°C 60% 3.1 mph E5.0 kmh E 6.9 mph11.1 kmh 29.74 in1007.1 mb 0.00 in0.0 mm 0.00 in/hr0.0 mm/hr 0.00 in0.0 mm
03:05 AM 53.1°F11.7°C 39.6°F4.2°C 60% 3.1 mph E5.0 kmh E 6.9 mph11.1 kmh 29.75 in1007.5 mb 0.00 in0.0 mm 0.00 in/hr0.0 mm/hr 0.00 in0.0 mm
03:10 AM 53.1°F11.7°C 39.6°F4.2°C 60% 2.2 mph E3.5 kmh E 6.0 mph9.7 kmh 29.74 in1007.1 mb 0.00 in0.0 mm 0.00 in/hr0.0 mm/hr 0.00 in0.0 mm
03:15 AM 53.1°F11.7°C 39.6°F4.2°C 60% 1.6 mph E2.6 kmh E 6.9 mph11.1 kmh 29.74 in1007.1 mb 0.00 in0.0 mm 0.00 in/hr0.0 mm/hr 0.00 in0.0 mm
03:20 AM 52.9°F11.6°C 39.4°F4.1°C 60% 2.2 mph E3.5 kmh E 6.9 mph11.1 kmh 29.74 in1007.1 mb 0.00 in0.0 mm 0.00 in/hr0.0 mm/hr 0.00 in0.0 mm
03:25 AM 52.9°F11.6°C 39.4°F4.1°C 60% 2.2 mph E3.5 kmh E 6.0 mph9.7 kmh 29.74 in1007.1 mb 0.00 in0.0 mm 0.00 in/hr0.0 mm/hr 0.00 in0.0 mm
03:30 AM 52.9°F11.6°C 39.4°F4.1°C 60% Calm Calm 6.0 mph9.7 kmh 29.74 in1007.1 mb 0.00 in0.0 mm 0.00 in/hr0.0 mm/hr 0.00 in0.0 mm
03:35 AM 52.7°F11.5°C 39.2°F4.0°C 60% 2.2 mph E3.5 kmh E 6.9 mph11.1 kmh 29.74 in1007.1 mb 0.00 in0.0 mm 0.00 in/hr0.0 mm/hr 0.00 in0.0 mm
03:40 AM 52.7°F11.5°C 39.2°F4.0°C 60% 1.6 mph E2.6 kmh E 6.9 mph11.1 kmh 29.74 in1007.1 mb 0.00 in0.0 mm 0.00 in/hr0.0 mm/hr 0.00 in0.0 mm
03:45 AM 52.5°F11.4°C 39.5°F4.2°C 61% 2.2 mph ENE3.5 kmh ENE 5.4 mph8.7 kmh 29.73 in1006.8 mb 0.00 in0.0 mm 0.00 in/hr0.0 mm/hr 0.00 in0.0 mm
03:50 AM 52.3°F11.3°C 39.3°F4.1°C 61% 1.6 mph E2.6 kmh E 5.4 mph8.7 kmh 29.73 in1006.8 mb 0.00 in0.0 mm 0.00 in/hr0.0 mm/hr 0.00 in0.0 mm
03:55 AM 52.3°F11.3°C 39.3°F4.1°C 61% Calm Calm 4.5 mph7.2 kmh 29.73 in1006.8 mb 0.00 in0.0 mm 0.00 in/hr0.0 mm/hr 0.00 in0.0 mm
04:00 AM 52.2°F11.2°C 39.5°F4.2°C 62% 1.6 mph E2.6 kmh E 4.5 mph7.2 kmh 29.73 in1006.8 mb 0.00 in0.0 mm 0.00 in/hr0.0 mm/hr 0.00 in0.0 mm
04:05 AM 52.2°F11.2°C 39.5°F4.2°C 62% 1.6 mph ESE2.6 kmh ESE 4.5 mph7.2 kmh 29.73 in1006.8 mb 0.00 in0.0 mm 0.00 in/hr0.0 mm/hr 0.00 in0.0 mm
04:10 AM 51.8°F11.0°C 39.2°F4.0°C 62% Calm Calm 3.8 mph6.1 kmh 29.73 in1006.8 mb 0.00 in0.0 mm 0.00 in/hr0.0 mm/hr 0.00 in0.0 mm
04:15 AM 51.6°F10.9°C 39.4°F4.1°C 63% 1.6 mph E2.6 kmh E 3.8 mph6.1 kmh 29.73 in1006.8 mb 0.00 in0.0 mm 0.00 in/hr0.0 mm/hr 0.00 in0.0 mm
04:20 AM 51.4°F10.8°C 39.3°F4.1°C 63% 0.7 mph ENE1.1 kmh ENE 3.1 mph5.0 kmh 29.72 in1006.4 mb 0.00 in0.0 mm 0.00 in/hr0.0 mm/hr 0.00 in0.0 mm
04:25 AM 51.4°F10.8°C 39.3°F4.1°C 63% 0.7 mph E1.1 kmh E 4.5 mph7.2 kmh 29.73 in1006.8 mb 0.00 in0.0 mm 0.00 in/hr0.0 mm/hr 0.00 in0.0 mm
04:30 AM 51.4°F10.8°C 39.7°F4.3°C 64% 1.6 mph E2.6 kmh E 6.0 mph9.7 kmh 29.73 in1006.8 mb 0.00 in0.0 mm 0.00 in/hr0.0 mm/hr 0.00 in0.0 mm
04:35 AM 51.3°F10.7°C 39.5°F4.2°C 64% 0.7 mph E1.1 kmh E 6.0 mph9.7 kmh 29.72 in1006.4 mb 0.00 in0.0 mm 0.00 in/hr0.0 mm/hr 0.00 in0.0 mm
04:40 AM 51.3°F10.7°C 39.5°F4.2°C 64% 0.7 mph ESE1.1 kmh ESE 4.5 mph7.2 kmh 29.72 in1006.4 mb 0.00 in0.0 mm 0.00 in/hr0.0 mm/hr 0.00 in0.0 mm
04:45 AM 51.3°F10.7°C 39.5°F4.2°C 64% 0.7 mph ESE1.1 kmh ESE 4.5 mph7.2 kmh 29.72 in1006.4 mb 0.00 in0.0 mm 0.00 in/hr0.0 mm/hr 0.00 in0.0 mm
04:50 AM 51.3°F10.7°C 39.5°F4.2°C 64% 1.6 mph ESE2.6 kmh ESE 5.4 mph8.7 kmh 29.72 in1006.4 mb 0.00 in0.0 mm 0.00 in/hr0.0 mm/hr 0.00 in0.0 mm
04:55 AM 51.3°F10.7°C 39.5°F4.2°C 64% 3.1 mph E5.0 kmh E 5.4 mph8.7 kmh 29.71 in1006.1 mb 0.00 in0.0 mm 0.00 in/hr0.0 mm/hr 0.00 in0.0 mm
05:00 AM 51.4°F10.8°C 39.7°F4.3°C 64% 1.6 mph E2.6 kmh E 6.0 mph9.7 kmh 29.71 in1006.1 mb 0.00 in0.0 mm 0.00 in/hr0.0 mm/hr 0.00 in0.0 mm
05:05 AM 51.4°F10.8°C 39.7°F4.3°C 64% 1.6 mph E2.6 kmh E 6.0 mph9.7 kmh 29.71 in1006.1 mb 0.00 in0.0 mm 0.00 in/hr0.0 mm/hr 0.00 in0.0 mm
05:10 AM 51.6°F10.9°C 39.8°F4.3°C 64% 3.1 mph E5.0 kmh E 6.0 mph9.7 kmh 29.71 in1006.1 mb 0.00 in0.0 mm 0.00 in/hr0.0 mm/hr 0.00 in0.0 mm
05:15 AM 51.6°F10.9°C 39.8°F4.3°C 64% 1.6 mph E2.6 kmh E 6.0 mph9.7 kmh 29.71 in1006.1 mb 0.00 in0.0 mm 0.00 in/hr0.0 mm/hr 0.00 in0.0 mm
05:20 AM 51.8°F11.0°C 40.0°F4.4°C 64% 2.2 mph E3.5 kmh E 6.0 mph9.7 kmh 29.71 in1006.1 mb 0.00 in0.0 mm 0.00 in/hr0.0 mm/hr 0.00 in0.0 mm
05:25 AM 51.8°F11.0°C 39.6°F4.2°C 63% 2.2 mph E3.5 kmh E 4.5 mph7.2 kmh 29.71 in1006.1 mb 0.00 in0.0 mm 0.00 in/hr0.0 mm/hr 0.00 in0.0 mm
05:30 AM 52.0°F11.1°C 39.8°F4.3°C 63% 3.8 mph E6.1 kmh E 6.9 mph11.1 kmh 29.71 in1006.1 mb 0.00 in0.0 mm 0.00 in/hr0.0 mm/hr 0.00 in0.0 mm
05:35 AM 52.0°F11.1°C 39.8°F4.3°C 63% 1.6 mph E2.6 kmh E 6.9 mph11.1 kmh 29.70 in1005.8 mb 0.00 in0.0 mm 0.00 in/hr0.0 mm/hr 0.00 in0.0 mm
05:40 AM 52.0°F11.1°C 39.8°F4.3°C 63% 1.6 mph ENE2.6 kmh ENE 6.9 mph11.1 kmh 29.70 in1005.8 mb 0.00 in0.0 mm 0.00 in/hr0.0 mm/hr 0.00 in0.0 mm
05:45 AM 52.0°F11.1°C 39.8°F4.3°C 63% 0.7 mph ENE1.1 kmh ENE 6.0 mph9.7 kmh 29.70 in1005.8 mb 0.00 in0.0 mm 0.00 in/hr0.0 mm/hr 0.00 in0.0 mm
05:50 AM 52.0°F11.1°C 39.8°F4.3°C 63% 3.1 mph E5.0 kmh E 6.0 mph9.7 kmh 29.70 in1005.8 mb 0.00 in0.0 mm 0.00 in/hr0.0 mm/hr 0.00 in0.0 mm
05:55 AM 52.2°F11.2°C 40.0°F4.4°C 63% 2.2 mph E3.5 kmh E 6.0 mph9.7 kmh 29.70 in1005.8 mb 0.00 in0.0 mm 0.00 in/hr0.0 mm/hr 0.00 in0.0 mm
06:00 AM 52.2°F11.2°C 40.0°F4.4°C 63% 1.6 mph E2.6 kmh E 6.0 mph9.7 kmh 29.70 in1005.8 mb 0.00 in0.0 mm 0.00 in/hr0.0 mm/hr 0.00 in0.0 mm
06:05 AM 52.2°F11.2°C 40.0°F4.4°C 63% 1.6 mph E2.6 kmh E 5.4 mph8.7 kmh 29.70 in1005.8 mb 0.00 in0.0 mm 0.00 in/hr0.0 mm/hr 0.00 in0.0 mm
06:10 AM 52.3°F11.3°C 40.1°F4.5°C 63% 1.6 mph E2.6 kmh E 4.5 mph7.2 kmh 29.70 in1005.8 mb 0.00 in0.0 mm 0.00 in/hr0.0 mm/hr 0.00 in0.0 mm
06:15 AM 52.3°F11.3°C 40.1°F4.5°C 63% 0.7 mph ENE1.1 kmh ENE 4.5 mph7.2 kmh 29.70 in1005.8 mb 0.00 in0.0 mm 0.00 in/hr0.0 mm/hr 0.00 in0.0 mm
06:20 AM 52.5°F11.4°C 40.3°F4.6°C 63% 1.6 mph ENE2.6 kmh ENE 5.4 mph8.7 kmh 29.70 in1005.8 mb 0.00 in0.0 mm 0.00 in/hr0.0 mm/hr 0.00 in0.0 mm
06:25 AM 52.5°F11.4°C 40.3°F4.6°C 63% 1.6 mph E2.6 kmh E 5.4 mph8.7 kmh 29.70 in1005.8 mb 0.00 in0.0 mm 0.00 in/hr0.0 mm/hr 0.00 in0.0 mm
06:30 AM 52.7°F11.5°C 40.5°F4.7°C 63% 3.1 mph ESE5.0 kmh ESE 5.4 mph8.7 kmh 29.70 in1005.8 mb 0.00 in0.0 mm 0.00 in/hr0.0 mm/hr 0.00 in0.0 mm
06:35 AM 52.7°F11.5°C 40.9°F4.9°C 64% 3.1 mph ESE5.0 kmh ESE 5.4 mph8.7 kmh 29.70 in1005.8 mb 0.00 in0.0 mm 0.00 in/hr0.0 mm/hr 0.00 in0.0 mm
06:40 AM 52.9°F11.6°C 41.0°F5.0°C 64% 1.6 mph ESE2.6 kmh ESE 6.0 mph9.7 kmh 29.70 in1005.8 mb 0.00 in0.0 mm 0.00 in/hr0.0 mm/hr 0.00 in0.0 mm
06:45 AM 52.9°F11.6°C 40.6°F4.8°C 63% 0.7 mph ESE1.1 kmh ESE 6.0 mph9.7 kmh 29.70 in1005.8 mb 0.00 in0.0 mm 0.00 in/hr0.0 mm/hr 0.00 in0.0 mm
06:50 AM 53.1°F11.7°C 40.8°F4.9°C 63% 1.6 mph E2.6 kmh E 6.9 mph11.1 kmh 29.70 in1005.8 mb 0.00 in0.0 mm 0.00 in/hr0.0 mm/hr 0.00 in0.0 mm
06:55 AM 53.2°F11.8°C 41.0°F5.0°C 63% 3.1 mph E5.0 kmh E 6.9 mph11.1 kmh 29.70 in1005.8 mb 0.00 in0.0 mm 0.00 in/hr0.0 mm/hr 0.00 in0.0 mm
07:00 AM 53.4°F11.9°C 41.2°F5.1°C 63% 3.1 mph E5.0 kmh E 7.6 mph12.2 kmh 29.70 in1005.8 mb 0.00 in0.0 mm 0.00 in/hr0.0 mm/hr 0.00 in0.0 mm
07:05 AM 53.4°F11.9°C 41.2°F5.1°C 63% 3.1 mph E5.0 kmh E 7.6 mph12.2 kmh 29.70 in1005.8 mb 0.00 in0.0 mm 0.00 in/hr0.0 mm/hr 0.00 in0.0 mm
07:10 AM 53.4°F11.9°C 41.6°F5.3°C 64% 3.1 mph NE5.0 kmh NE 6.0 mph9.7 kmh 29.70 in1005.8 mb 0.00 in0.0 mm 0.00 in/hr0.0 mm/hr 0.00 in0.0 mm
07:15 AM 53.2°F11.8°C 41.4°F5.2°C 64% 2.2 mph E3.5 kmh E 6.9 mph11.1 kmh 29.70 in1005.8 mb 0.00 in0.0 mm 0.00 in/hr0.0 mm/hr 0.00 in0.0 mm
07:20 AM 53.2°F11.8°C 41.8°F5.4°C 65% 2.2 mph E3.5 kmh E 6.9 mph11.1 kmh 29.70 in1005.8 mb 0.00 in0.0 mm 0.00 in/hr0.0 mm/hr 0.00 in0.0 mm
07:25 AM 53.2°F11.8°C 41.8°F5.4°C 65% 1.6 mph E2.6 kmh E 6.9 mph11.1 kmh 29.70 in1005.8 mb 0.00 in0.0 mm 0.00 in/hr0.0 mm/hr 0.00 in0.0 mm
07:30 AM 53.4°F11.9°C 41.6°F5.3°C 64% 3.1 mph E5.0 kmh E 7.6 mph12.2 kmh 29.70 in1005.8 mb 0.00 in0.0 mm 0.00 in/hr0.0 mm/hr 0.00 in0.0 mm
07:35 AM 53.4°F11.9°C 41.6°F5.3°C 64% 3.1 mph E5.0 kmh E 8.3 mph13.4 kmh 29.70 in1005.8 mb 0.00 in0.0 mm 0.00 in/hr0.0 mm/hr 0.00 in0.0 mm
07:40 AM 53.6°F12.0°C 41.7°F5.4°C 64% 2.2 mph E3.5 kmh E 8.3 mph13.4 kmh 29.70 in1005.8 mb 0.00 in0.0 mm 0.00 in/hr0.0 mm/hr 0.00 in0.0 mm
07:45 AM 53.8°F12.1°C 41.9°F5.5°C 64% 1.6 mph E2.6 kmh E 8.3 mph13.4 kmh 29.70 in1005.8 mb 0.00 in0.0 mm 0.00 in/hr0.0 mm/hr 0.00 in0.0 mm
07:50 AM 54.0°F12.2°C 41.7°F5.4°C 63% 2.2 mph ESE3.5 kmh ESE 6.0 mph9.7 kmh 29.70 in1005.8 mb 0.00 in0.0 mm 0.00 in/hr0.0 mm/hr 0.00 in0.0 mm
07:55 AM 54.1°F12.3°C 41.8°F5.4°C 63% 3.8 mph E6.1 kmh E 9.2 mph14.8 kmh 29.70 in1005.8 mb 0.00 in0.0 mm 0.00 in/hr0.0 mm/hr 0.00 in0.0 mm
08:00 AM 54.3°F12.4°C 42.0°F5.6°C 63% 3.1 mph E5.0 kmh E 11.4 mph18.3 kmh 29.70 in1005.8 mb 0.00 in0.0 mm 0.00 in/hr0.0 mm/hr 0.00 in0.0 mm
08:05 AM 54.3°F12.4°C 42.0°F5.6°C 63% 3.1 mph E5.0 kmh E 11.4 mph18.3 kmh 29.69 in1005.4 mb 0.00 in0.0 mm 0.00 in/hr0.0 mm/hr 0.00 in0.0 mm
08:10 AM 54.7°F12.6°C 42.3°F5.7°C 63% 3.8 mph E6.1 kmh E 8.3 mph13.4 kmh 29.69 in1005.4 mb 0.00 in0.0 mm 0.00 in/hr0.0 mm/hr 0.00 in0.0 mm
08:15 AM 54.7°F12.6°C 42.3°F5.7°C 63% 5.4 mph E8.7 kmh E 9.2 mph14.8 kmh 29.69 in1005.4 mb 0.00 in0.0 mm 0.00 in/hr0.0 mm/hr 0.00 in0.0 mm
08:20 AM 54.7°F12.6°C 42.3°F5.7°C 63% 2.2 mph E3.5 kmh E 9.2 mph14.8 kmh 29.69 in1005.4 mb 0.00 in0.0 mm 0.00 in/hr0.0 mm/hr 0.00 in0.0 mm
08:25 AM 54.7°F12.6°C 42.3°F5.7°C 63% 0.7 mph ESE1.1 kmh ESE 9.2 mph14.8 kmh 29.69 in1005.4 mb 0.00 in0.0 mm 0.00 in/hr0.0 mm/hr 0.00 in0.0 mm
08:30 AM 54.9°F12.7°C 42.5°F5.8°C 63% 3.1 mph ESE5.0 kmh ESE 7.6 mph12.2 kmh 29.69 in1005.4 mb 0.00 in0.0 mm 0.00 in/hr0.0 mm/hr 0.00 in0.0 mm
08:35 AM 55.0°F12.8°C 42.7°F5.9°C 63% 3.8 mph ESE6.1 kmh ESE 8.3 mph13.4 kmh 29.69 in1005.4 mb 0.00 in0.0 mm 0.00 in/hr0.0 mm/hr 0.00 in0.0 mm
08:40 AM 55.2°F12.9°C 42.9°F6.1°C 63% 2.2 mph E3.5 kmh E 8.3 mph13.4 kmh 29.69 in1005.4 mb 0.00 in0.0 mm 0.00 in/hr0.0 mm/hr 0.00 in0.0 mm
08:45 AM 55.6°F13.1°C 42.8°F6.0°C 62% 4.5 mph E7.2 kmh E 8.3 mph13.4 kmh 29.69 in1005.4 mb 0.00 in0.0 mm 0.00 in/hr0.0 mm/hr 0.00 in0.0 mm
08:50 AM 56.1°F13.4°C 43.3°F6.3°C 62% 3.8 mph E6.1 kmh E 8.3 mph13.4 kmh 29.69 in1005.4 mb 0.00 in0.0 mm 0.00 in/hr0.0 mm/hr 0.00 in0.0 mm
08:55 AM 56.5°F13.6°C 43.6°F6.4°C 62% 3.1 mph E5.0 kmh E 9.8 mph15.8 kmh 29.69 in1005.4 mb 0.00 in0.0 mm 0.00 in/hr0.0 mm/hr 0.00 in0.0 mm
09:00 AM 56.8°F13.8°C 44.0°F6.7°C 62% 8.3 mph E13.4 kmh E 11.4 mph18.3 kmh 29.68 in1005.1 mb 0.00 in0.0 mm 0.00 in/hr0.0 mm/hr 0.00 in0.0 mm
09:05 AM 56.8°F13.8°C 44.0°F6.7°C 62% 8.3 mph NE13.4 kmh NE 11.4 mph18.3 kmh 29.68 in1005.1 mb 0.00 in0.0 mm 0.00 in/hr0.0 mm/hr 0.00 in0.0 mm
09:10 AM 57.6°F14.2°C 44.7°F7.1°C 62% 3.1 mph NE5.0 kmh NE 11.4 mph18.3 kmh 29.68 in1005.1 mb 0.00 in0.0 mm 0.00 in/hr0.0 mm/hr 0.00 in0.0 mm
09:15 AM 57.9°F14.4°C 44.6°F7.0°C 61% 2.2 mph E3.5 kmh E 11.4 mph18.3 kmh 29.68 in1005.1 mb 0.00 in0.0 mm 0.00 in/hr0.0 mm/hr 0.00 in0.0 mm
09:20 AM 58.3°F14.6°C 44.9°F7.2°C 61% 0.7 mph E1.1 kmh E 8.3 mph13.4 kmh 29.68 in1005.1 mb 0.00 in0.0 mm 0.00 in/hr0.0 mm/hr 0.00 in0.0 mm
09:25 AM 58.3°F14.6°C 44.9°F7.2°C 61% 3.8 mph E6.1 kmh E 12.1 mph19.5 kmh 29.68 in1005.1 mb 0.00 in0.0 mm 0.00 in/hr0.0 mm/hr 0.00 in0.0 mm
09:30 AM 59.0°F15.0°C 45.6°F7.6°C 61% 3.8 mph E6.1 kmh E 12.1 mph19.5 kmh 29.68 in1005.1 mb 0.00 in0.0 mm 0.00 in/hr0.0 mm/hr 0.00 in0.0 mm
09:35 AM 59.9°F15.5°C 45.6°F7.6°C 59% 3.8 mph E6.1 kmh E 11.4 mph18.3 kmh 29.68 in1005.1 mb 0.00 in0.0 mm 0.00 in/hr0.0 mm/hr 0.00 in0.0 mm
09:40 AM 60.4°F15.8°C 45.6°F7.6°C 58% 3.1 mph E5.0 kmh E 9.8 mph15.8 kmh 29.67 in1004.7 mb 0.00 in0.0 mm 0.00 in/hr0.0 mm/hr 0.00 in0.0 mm
09:45 AM 60.6°F15.9°C 45.3°F7.4°C 57% 3.1 mph E5.0 kmh E 10.7 mph17.2 kmh 29.67 in1004.7 mb 0.00 in0.0 mm 0.00 in/hr0.0 mm/hr 0.00 in0.0 mm
09:50 AM 60.8°F16.0°C 45.5°F7.5°C 57% 4.5 mph E7.2 kmh E 10.7 mph17.2 kmh 29.67 in1004.7 mb 0.00 in0.0 mm 0.00 in/hr0.0 mm/hr 0.00 in0.0 mm
09:55 AM 61.2°F16.2°C 45.8°F7.7°C 57% 3.1 mph E5.0 kmh E 11.4 mph18.3 kmh 29.67 in1004.7 mb 0.00 in0.0 mm 0.00 in/hr0.0 mm/hr 0.00 in0.0 mm
10:00 AM 61.5°F16.4°C 45.7°F7.6°C 56% 4.5 mph E7.2 kmh E 11.4 mph18.3 kmh 29.67 in1004.7 mb 0.00 in0.0 mm 0.00 in/hr0.0 mm/hr 0.00 in0.0 mm
10:05 AM 61.5°F16.4°C 45.7°F7.6°C 56% 4.5 mph E7.2 kmh E 8.3 mph13.4 kmh 29.67 in1004.7 mb 0.00 in0.0 mm 0.00 in/hr0.0 mm/hr 0.00 in0.0 mm
10:10 AM 62.6°F17.0°C 46.2°F7.9°C 55% 4.5 mph ENE7.2 kmh ENE 11.4 mph18.3 kmh 29.67 in1004.7 mb 0.00 in0.0 mm 0.00 in/hr0.0 mm/hr 0.00 in0.0 mm
10:15 AM 63.0°F17.2°C 46.1°F7.8°C 54% 2.2 mph E3.5 kmh E 11.4 mph18.3 kmh 29.67 in1004.7 mb 0.00 in0.0 mm 0.00 in/hr0.0 mm/hr 0.00 in0.0 mm
10:20 AM 63.3°F17.4°C 45.9°F7.7°C 53% 6.0 mph ESE9.7 kmh ESE 12.1 mph19.5 kmh 29.67 in1004.7 mb 0.00 in0.0 mm 0.00 in/hr0.0 mm/hr 0.00 in0.0 mm
10:25 AM 63.7°F17.6°C 46.2°F7.9°C 53% 1.6 mph E2.6 kmh E 12.1 mph19.5 kmh 29.67 in1004.7 mb 0.00 in0.0 mm 0.00 in/hr0.0 mm/hr 0.00 in0.0 mm
10:30 AM 64.2°F17.9°C 46.2°F7.9°C 52% 3.8 mph E6.1 kmh E 12.1 mph19.5 kmh 29.67 in1004.7 mb 0.00 in0.0 mm 0.00 in/hr0.0 mm/hr 0.00 in0.0 mm
10:35 AM 64.4°F18.0°C 46.4°F8.0°C 52% 4.5 mph ESE7.2 kmh ESE 10.7 mph17.2 kmh 29.67 in1004.7 mb 0.00 in0.0 mm 0.00 in/hr0.0 mm/hr 0.00 in0.0 mm
10:40 AM 64.6°F18.1°C 46.1°F7.8°C 51% 2.2 mph E3.5 kmh E 13.0 mph20.9 kmh 29.66 in1004.4 mb 0.00 in0.0 mm 0.00 in/hr0.0 mm/hr 0.00 in0.0 mm
10:45 AM 64.8°F18.2°C 46.2°F7.9°C 51% 4.5 mph E7.2 kmh E 13.0 mph20.9 kmh 29.67 in1004.7 mb 0.00 in0.0 mm 0.00 in/hr0.0 mm/hr 0.00 in0.0 mm
10:50 AM 64.9°F18.3°C 46.4°F8.0°C 51% 4.5 mph ESE7.2 kmh ESE 11.4 mph18.3 kmh 29.67 in1004.7 mb 0.00 in0.0 mm 0.00 in/hr0.0 mm/hr 0.00 in0.0 mm
10:55 AM 64.9°F18.3°C 46.4°F8.0°C 51% 3.1 mph E5.0 kmh E 10.7 mph17.2 kmh 29.66 in1004.4 mb 0.00 in0.0 mm 0.00 in/hr0.0 mm/hr 0.00 in0.0 mm
11:00 AM 65.3°F18.5°C 46.7°F8.2°C 51% 1.6 mph E2.6 kmh E 10.7 mph17.2 kmh 29.66 in1004.4 mb 0.00 in0.0 mm 0.00 in/hr0.0 mm/hr 0.00 in0.0 mm
11:05 AM 65.3°F18.5°C 46.7°F8.2°C 51% 1.6 mph ESE2.6 kmh ESE 10.7 mph17.2 kmh 29.66 in1004.4 mb 0.00 in0.0 mm 0.00 in/hr0.0 mm/hr 0.00 in0.0 mm
11:10 AM 66.0°F18.9°C 46.9°F8.3°C 50% 1.6 mph SE2.6 kmh SE 9.2 mph14.8 kmh 29.66 in1004.4 mb 0.00 in0.0 mm 0.00 in/hr0.0 mm/hr 0.00 in0.0 mm
11:15 AM 66.4°F19.1°C 47.2°F8.4°C 50% 3.1 mph E5.0 kmh E 11.4 mph18.3 kmh 29.66 in1004.4 mb 0.00 in0.0 mm 0.00 in/hr0.0 mm/hr 0.00 in0.0 mm
11:20 AM 66.6°F19.2°C 46.8°F8.2°C 49% 3.8 mph E6.1 kmh E 11.4 mph18.3 kmh 29.67 in1004.7 mb 0.00 in0.0 mm 0.00 in/hr0.0 mm/hr 0.00 in0.0 mm
11:25 AM 66.6°F19.2°C 46.8°F8.2°C 49% 4.5 mph E7.2 kmh E 10.7 mph17.2 kmh 29.67 in1004.7 mb 0.00 in0.0 mm 0.00 in/hr0.0 mm/hr 0.00 in0.0 mm
11:30 AM 66.7°F19.3°C 47.5°F8.6°C 50% 3.8 mph ESE6.1 kmh ESE 11.4 mph18.3 kmh 29.66 in1004.4 mb 0.00 in0.0 mm 0.00 in/hr0.0 mm/hr 0.00 in0.0 mm
11:35 AM 66.9°F19.4°C 47.2°F8.4°C 49% 6.0 mph ESE9.7 kmh ESE 11.4 mph18.3 kmh 29.66 in1004.4 mb 0.00 in0.0 mm 0.00 in/hr0.0 mm/hr 0.00 in0.0 mm
11:40 AM 66.9°F19.4°C 47.2°F8.4°C 49% 3.1 mph E5.0 kmh E 12.1 mph19.5 kmh 29.65 in1004.1 mb 0.00 in0.0 mm 0.00 in/hr0.0 mm/hr 0.00 in0.0 mm
11:45 AM 67.1°F19.5°C 47.9°F8.8°C 50% 2.2 mph E3.5 kmh E 13.6 mph21.9 kmh 29.65 in1004.1 mb 0.00 in0.0 mm 0.00 in/hr0.0 mm/hr 0.00 in0.0 mm
11:50 AM 67.8°F19.9°C 48.0°F8.9°C 49% 4.5 mph E7.2 kmh E 13.6 mph21.9 kmh 29.66 in1004.4 mb 0.00 in0.0 mm 0.00 in/hr0.0 mm/hr 0.00 in0.0 mm
11:55 AM 68.2°F20.1°C 48.3°F9.1°C 49% 4.5 mph SE7.2 kmh SE 13.0 mph20.9 kmh 29.66 in1004.4 mb 0.00 in0.0 mm 0.00 in/hr0.0 mm/hr 0.00 in0.0 mm
12:00 PM 68.5°F20.3°C 47.0°F8.3°C 46% 4.5 mph ESE7.2 kmh ESE 13.0 mph20.9 kmh 29.66 in1004.4 mb 0.00 in0.0 mm 0.00 in/hr0.0 mm/hr 0.00 in0.0 mm
12:05 PM 68.5°F20.3°C 47.0°F8.3°C 46% 4.5 mph NNW7.2 kmh NNW 13.0 mph20.9 kmh 29.66 in1004.4 mb 0.00 in0.0 mm 0.00 in/hr0.0 mm/hr 0.00 in0.0 mm
12:10 PM 68.5°F20.3°C 47.5°F8.6°C 47% 1.6 mph NW2.6 kmh NW 10.7 mph17.2 kmh 29.66 in1004.4 mb 0.00 in0.0 mm 0.00 in/hr0.0 mm/hr 0.00 in0.0 mm
12:15 PM 68.9°F20.5°C 47.3°F8.5°C 46% 6.9 mph NNE11.1 kmh NNE 13.6 mph21.9 kmh 29.66 in1004.4 mb 0.00 in0.0 mm 0.00 in/hr0.0 mm/hr 0.00 in0.0 mm
12:20 PM 68.9°F20.5°C 47.9°F8.8°C 47% 2.2 mph SE3.5 kmh SE 13.6 mph21.9 kmh 29.66 in1004.4 mb 0.00 in0.0 mm 0.00 in/hr0.0 mm/hr 0.00 in0.0 mm
12:25 PM 69.1°F20.6°C 48.0°F8.9°C 47% 3.8 mph E6.1 kmh E 13.6 mph21.9 kmh 29.66 in1004.4 mb 0.00 in0.0 mm 0.00 in/hr0.0 mm/hr 0.00 in0.0 mm
12:30 PM 68.7°F20.4°C 47.1°F8.4°C 46% 1.6 mph NE2.6 kmh NE 9.2 mph14.8 kmh 29.66 in1004.4 mb 0.00 in0.0 mm 0.00 in/hr0.0 mm/hr 0.00 in0.0 mm
12:35 PM 68.2°F20.1°C 47.2°F8.4°C 47% 2.2 mph ENE3.5 kmh ENE 8.3 mph13.4 kmh 29.66 in1004.4 mb 0.00 in0.0 mm 0.00 in/hr0.0 mm/hr 0.00 in0.0 mm
12:40 PM 67.8°F19.9°C 47.4°F8.6°C 48% 1.6 mph ESE2.6 kmh ESE 8.3 mph13.4 kmh 29.67 in1004.7 mb 0.00 in0.0 mm 0.00 in/hr0.0 mm/hr 0.00 in0.0 mm
12:45 PM 67.6°F19.8°C 47.8°F8.8°C 49% 2.2 mph SW3.5 kmh SW 6.9 mph11.1 kmh 29.66 in1004.4 mb 0.00 in0.0 mm 0.00 in/hr0.0 mm/hr 0.00 in0.0 mm
12:50 PM 67.1°F19.5°C 47.3°F8.5°C 49% 1.6 mph NW2.6 kmh NW 6.9 mph11.1 kmh 29.66 in1004.4 mb 0.00 in0.0 mm 0.00 in/hr0.0 mm/hr 0.00 in0.0 mm
12:55 PM 66.6°F19.2°C 47.4°F8.6°C 50% 0.7 mph NNE1.1 kmh NNE 8.3 mph13.4 kmh 29.67 in1004.7 mb 0.00 in0.0 mm 0.00 in/hr0.0 mm/hr 0.00 in0.0 mm
01:00 PM 66.0°F18.9°C 47.4°F8.6°C 51% 2.2 mph NW3.5 kmh NW 9.8 mph15.8 kmh 29.67 in1004.7 mb 0.00 in0.0 mm 0.00 in/hr0.0 mm/hr 0.00 in0.0 mm
01:05 PM 66.0°F18.9°C 47.4°F8.6°C 51% 2.2 mph NW3.5 kmh NW 9.8 mph15.8 kmh 29.68 in1005.1 mb 0.00 in0.0 mm 0.00 in/hr0.0 mm/hr 0.00 in0.0 mm
01:10 PM 65.3°F18.5°C 47.2°F8.4°C 52% 2.2 mph NW3.5 kmh NW 6.9 mph11.1 kmh 29.68 in1005.1 mb 0.00 in0.0 mm 0.00 in/hr0.0 mm/hr 0.00 in0.0 mm
01:15 PM 64.9°F18.3°C 47.4°F8.6°C 53% 2.2 mph NNW3.5 kmh NNW 6.9 mph11.1 kmh 29.68 in1005.1 mb 0.00 in0.0 mm 0.00 in/hr0.0 mm/hr 0.00 in0.0 mm
01:20 PM 64.8°F18.2°C 47.7°F8.7°C 54% 2.2 mph NE3.5 kmh NE 6.9 mph11.1 kmh 29.68 in1005.1 mb 0.00 in0.0 mm 0.00 in/hr0.0 mm/hr 0.00 in0.0 mm
01:25 PM 64.4°F18.0°C 47.4°F8.6°C 54% 2.2 mph NE3.5 kmh NE 11.4 mph18.3 kmh 29.68 in1005.1 mb 0.00 in0.0 mm 0.00 in/hr0.0 mm/hr 0.00 in0.0 mm
01:30 PM 64.4°F18.0°C 47.9°F8.8°C 55% 2.2 mph NW3.5 kmh NW 11.4 mph18.3 kmh 29.68 in1005.1 mb 0.00 in0.0 mm 0.00 in/hr0.0 mm/hr 0.00 in0.0 mm
01:35 PM 64.4°F18.0°C 47.9°F8.8°C 55% 2.2 mph W3.5 kmh W 11.4 mph18.3 kmh 29.69 in1005.4 mb 0.00 in0.0 mm 0.00 in/hr0.0 mm/hr 0.00 in0.0 mm
01:40 PM 64.4°F18.0°C 47.9°F8.8°C 55% 3.8 mph WNW6.1 kmh WNW 11.4 mph18.3 kmh 29.68 in1005.1 mb 0.00 in0.0 mm 0.00 in/hr0.0 mm/hr 0.00 in0.0 mm
01:45 PM 64.2°F17.9°C 48.2°F9.0°C 56% 3.1 mph WNW5.0 kmh WNW 9.2 mph14.8 kmh 29.68 in1005.1 mb 0.00 in0.0 mm 0.00 in/hr0.0 mm/hr 0.00 in0.0 mm
01:50 PM 64.2°F17.9°C 48.2°F9.0°C 56% 3.1 mph WSW5.0 kmh WSW 9.2 mph14.8 kmh 29.69 in1005.4 mb 0.00 in0.0 mm 0.00 in/hr0.0 mm/hr 0.00 in0.0 mm
01:55 PM 64.2°F17.9°C 48.2°F9.0°C 56% 3.8 mph SW6.1 kmh SW 9.2 mph14.8 kmh 29.69 in1005.4 mb 0.00 in0.0 mm 0.00 in/hr0.0 mm/hr 0.00 in0.0 mm
02:00 PM 63.9°F17.7°C 48.3°F9.1°C 57% 3.1 mph WSW5.0 kmh WSW 9.2 mph14.8 kmh 29.69 in1005.4 mb 0.00 in0.0 mm 0.00 in/hr0.0 mm/hr 0.00 in0.0 mm
02:05 PM 63.9°F17.7°C 48.3°F9.1°C 57% 3.1 mph S5.0 kmh S 9.2 mph14.8 kmh 29.69 in1005.4 mb 0.00 in0.0 mm 0.00 in/hr0.0 mm/hr 0.00 in0.0 mm
02:10 PM 63.9°F17.7°C 48.3°F9.1°C 57% 2.2 mph S3.5 kmh S 9.2 mph14.8 kmh 29.70 in1005.8 mb 0.00 in0.0 mm 0.00 in/hr0.0 mm/hr 0.00 in0.0 mm
02:15 PM 63.7°F17.6°C 48.2°F9.0°C 57% 2.2 mph S3.5 kmh S 9.2 mph14.8 kmh 29.69 in1005.4 mb 0.00 in0.0 mm 0.00 in/hr0.0 mm/hr 0.00 in0.0 mm
02:20 PM 63.3°F17.4°C 48.3°F9.1°C 58% 1.6 mph NNE2.6 kmh NNE 7.6 mph12.2 kmh 29.70 in1005.8 mb 0.00 in0.0 mm 0.00 in/hr0.0 mm/hr 0.00 in0.0 mm
02:25 PM 63.0°F17.2°C 48.4°F9.1°C 59% 3.1 mph SSE5.0 kmh SSE 13.6 mph21.9 kmh 29.70 in1005.8 mb 0.00 in0.0 mm 0.00 in/hr0.0 mm/hr 0.00 in0.0 mm
02:30 PM 62.6°F17.0°C 48.5°F9.2°C 60% 1.6 mph ESE2.6 kmh ESE 13.6 mph21.9 kmh 29.70 in1005.8 mb 0.00 in0.0 mm 0.00 in/hr0.0 mm/hr 0.00 in0.0 mm
02:35 PM 62.6°F17.0°C 48.5°F9.2°C 60% 2.2 mph W3.5 kmh W 6.9 mph11.1 kmh 29.70 in1005.8 mb 0.00 in0.0 mm 0.00 in/hr0.0 mm/hr 0.00 in0.0 mm
02:40 PM 62.4°F16.9°C 48.4°F9.1°C 60% 2.2 mph WNW3.5 kmh WNW 6.9 mph11.1 kmh 29.70 in1005.8 mb 0.00 in0.0 mm 0.00 in/hr0.0 mm/hr 0.00 in0.0 mm
02:45 PM 62.4°F16.9°C 48.8°F9.3°C 61% 0.7 mph NW1.1 kmh NW 6.9 mph11.1 kmh 29.70 in1005.8 mb 0.00 in0.0 mm 0.00 in/hr0.0 mm/hr 0.00 in0.0 mm
02:50 PM 62.6°F17.0°C 49.0°F9.4°C 61% 3.1 mph NNW5.0 kmh NNW 6.0 mph9.7 kmh 29.70 in1005.8 mb 0.00 in0.0 mm 0.00 in/hr0.0 mm/hr 0.00 in0.0 mm
02:55 PM 62.4°F16.9°C 48.8°F9.3°C 61% 1.6 mph NW2.6 kmh NW 9.8 mph15.8 kmh 29.70 in1005.8 mb 0.00 in0.0 mm 0.00 in/hr0.0 mm/hr 0.00 in0.0 mm
03:00 PM 62.4°F16.9°C 48.8°F9.3°C 61% 2.2 mph WSW3.5 kmh WSW 9.8 mph15.8 kmh 29.71 in1006.1 mb 0.00 in0.0 mm 0.00 in/hr0.0 mm/hr 0.00 in0.0 mm
03:05 PM 62.4°F16.9°C 48.8°F9.3°C 61% 2.2 mph WSW3.5 kmh WSW 9.2 mph14.8 kmh 29.71 in1006.1 mb 0.00 in0.0 mm 0.00 in/hr0.0 mm/hr 0.00 in0.0 mm
03:10 PM 61.9°F16.6°C 48.7°F9.3°C 62% 1.6 mph WSW2.6 kmh WSW 6.9 mph11.1 kmh 29.70 in1005.8 mb 0.00 in0.0 mm 0.00 in/hr0.0 mm/hr 0.00 in0.0 mm
03:15 PM 61.7°F16.5°C 49.0°F9.4°C 63% 1.6 mph SW2.6 kmh SW 6.9 mph11.1 kmh 29.71 in1006.1 mb 0.00 in0.0 mm 0.00 in/hr0.0 mm/hr 0.00 in0.0 mm
03:20 PM 61.7°F16.5°C 49.4°F9.7°C 64% 0.7 mph WSW1.1 kmh WSW 6.0 mph9.7 kmh 29.70 in1005.8 mb 0.00 in0.0 mm 0.00 in/hr0.0 mm/hr 0.00 in0.0 mm
03:25 PM 61.7°F16.5°C 49.4°F9.7°C 64% 0.7 mph WSW1.1 kmh WSW 6.0 mph9.7 kmh 29.71 in1006.1 mb 0.00 in0.0 mm 0.00 in/hr0.0 mm/hr 0.00 in0.0 mm
03:30 PM 61.7°F16.5°C 49.4°F9.7°C 64% 2.2 mph WSW3.5 kmh WSW 7.6 mph12.2 kmh 29.70 in1005.8 mb 0.00 in0.0 mm 0.00 in/hr0.0 mm/hr 0.00 in0.0 mm
03:35 PM 61.9°F16.6°C 49.6°F9.8°C 64% 1.6 mph WSW2.6 kmh WSW 7.6 mph12.2 kmh 29.70 in1005.8 mb 0.00 in0.0 mm 0.00 in/hr0.0 mm/hr 0.00 in0.0 mm
03:40 PM 62.1°F16.7°C 49.3°F9.6°C 63% 1.6 mph WSW2.6 kmh WSW 8.3 mph13.4 kmh 29.70 in1005.8 mb 0.00 in0.0 mm 0.00 in/hr0.0 mm/hr 0.00 in0.0 mm
03:45 PM 62.2°F16.8°C 49.5°F9.7°C 63% 1.6 mph WSW2.6 kmh WSW 8.3 mph13.4 kmh 29.71 in1006.1 mb 0.00 in0.0 mm 0.00 in/hr0.0 mm/hr 0.00 in0.0 mm
03:50 PM 62.4°F16.9°C 49.2°F9.6°C 62% 0.7 mph SW1.1 kmh SW 7.6 mph12.2 kmh 29.70 in1005.8 mb 0.00 in0.0 mm 0.00 in/hr0.0 mm/hr 0.00 in0.0 mm
03:55 PM 62.6°F17.0°C 49.4°F9.7°C 62% 1.6 mph SW2.6 kmh SW 5.4 mph8.7 kmh 29.71 in1006.1 mb 0.00 in0.0 mm 0.00 in/hr0.0 mm/hr 0.00 in0.0 mm
04:00 PM 62.8°F17.1°C 49.1°F9.5°C 61% 4.5 mph SW7.2 kmh SW 8.3 mph13.4 kmh 29.71 in1006.1 mb 0.00 in0.0 mm 0.00 in/hr0.0 mm/hr 0.00 in0.0 mm
04:05 PM 62.8°F17.1°C 49.1°F9.5°C 61% 4.5 mph SW7.2 kmh SW 8.3 mph13.4 kmh 29.71 in1006.1 mb 0.00 in0.0 mm 0.00 in/hr0.0 mm/hr 0.00 in0.0 mm
04:10 PM 62.8°F17.1°C 49.1°F9.5°C 61% 1.6 mph SSW2.6 kmh SSW 8.3 mph13.4 kmh 29.70 in1005.8 mb 0.00 in0.0 mm 0.00 in/hr0.0 mm/hr 0.00 in0.0 mm
04:15 PM 62.8°F17.1°C 49.1°F9.5°C 61% 2.2 mph SW3.5 kmh SW 8.3 mph13.4 kmh 29.71 in1006.1 mb 0.00 in0.0 mm 0.00 in/hr0.0 mm/hr 0.00 in0.0 mm
04:20 PM 63.0°F17.2°C 49.3°F9.6°C 61% 2.2 mph WSW3.5 kmh WSW 6.9 mph11.1 kmh 29.71 in1006.1 mb 0.00 in0.0 mm 0.00 in/hr0.0 mm/hr 0.00 in0.0 mm
04:25 PM 63.1°F17.3°C 49.5°F9.7°C 61% 1.6 mph SW2.6 kmh SW 6.9 mph11.1 kmh 29.71 in1006.1 mb 0.00 in0.0 mm 0.00 in/hr0.0 mm/hr 0.00 in0.0 mm
04:30 PM 63.1°F17.3°C 49.5°F9.7°C 61% 3.1 mph SW5.0 kmh SW 6.9 mph11.1 kmh 29.71 in1006.1 mb 0.00 in0.0 mm 0.00 in/hr0.0 mm/hr 0.00 in0.0 mm
04:35 PM 63.1°F17.3°C 49.5°F9.7°C 61% 0.7 mph WSW1.1 kmh WSW 6.9 mph11.1 kmh 29.71 in1006.1 mb 0.00 in0.0 mm 0.00 in/hr0.0 mm/hr 0.00 in0.0 mm
04:40 PM 63.0°F17.2°C 49.3°F9.6°C 61% Calm Calm 4.5 mph7.2 kmh 29.71 in1006.1 mb 0.00 in0.0 mm 0.00 in/hr0.0 mm/hr 0.00 in0.0 mm
04:45 PM 62.8°F17.1°C 49.6°F9.8°C 62% 2.2 mph SW3.5 kmh SW 4.5 mph7.2 kmh 29.71 in1006.1 mb 0.00 in0.0 mm 0.00 in/hr0.0 mm/hr 0.00 in0.0 mm
04:50 PM 62.6°F17.0°C 49.8°F9.9°C 63% 1.6 mph SW2.6 kmh SW 5.4 mph8.7 kmh 29.72 in1006.4 mb 0.00 in0.0 mm 0.00 in/hr0.0 mm/hr 0.00 in0.0 mm
04:55 PM 62.4°F16.9°C 49.7°F9.8°C 63% Calm Calm 6.0 mph9.7 kmh 29.72 in1006.4 mb 0.00 in0.0 mm 0.00 in/hr0.0 mm/hr 0.00 in0.0 mm
05:00 PM 62.4°F16.9°C 49.7°F9.8°C 63% 2.2 mph WNW3.5 kmh WNW 6.0 mph9.7 kmh 29.72 in1006.4 mb 0.00 in0.0 mm 0.00 in/hr0.0 mm/hr 0.00 in0.0 mm
05:05 PM 62.4°F16.9°C 49.7°F9.8°C 63% 2.2 mph NW3.5 kmh NW 4.5 mph7.2 kmh 29.72 in1006.4 mb 0.00 in0.0 mm 0.00 in/hr0.0 mm/hr 0.00 in0.0 mm
05:10 PM 62.2°F16.8°C 49.9°F9.9°C 64% 0.7 mph WNW1.1 kmh WNW 7.6 mph12.2 kmh 29.72 in1006.4 mb 0.00 in0.0 mm 0.00 in/hr0.0 mm/hr 0.00 in0.0 mm
05:15 PM 62.1°F16.7°C 50.2°F10.1°C 65% 1.6 mph WNW2.6 kmh WNW 7.6 mph12.2 kmh 29.72 in1006.4 mb 0.00 in0.0 mm 0.00 in/hr0.0 mm/hr 0.00 in0.0 mm
05:20 PM 61.9°F16.6°C 50.0°F10.0°C 65% 0.7 mph WSW1.1 kmh WSW 7.6 mph12.2 kmh 29.72 in1006.4 mb 0.00 in0.0 mm 0.00 in/hr0.0 mm/hr 0.00 in0.0 mm
05:25 PM 61.7°F16.5°C 49.8°F9.9°C 65% 2.2 mph W3.5 kmh W 7.6 mph12.2 kmh 29.72 in1006.4 mb 0.00 in0.0 mm 0.00 in/hr0.0 mm/hr 0.00 in0.0 mm
05:30 PM 61.7°F16.5°C 49.8°F9.9°C 65% Calm Calm 5.4 mph8.7 kmh 29.72 in1006.4 mb 0.00 in0.0 mm 0.00 in/hr0.0 mm/hr 0.00 in0.0 mm
05:35 PM 61.7°F16.5°C 50.2°F10.1°C 66% Calm Calm 4.5 mph7.2 kmh 29.72 in1006.4 mb 0.00 in0.0 mm 0.00 in/hr0.0 mm/hr 0.00 in0.0 mm
05:40 PM 61.7°F16.5°C 50.2°F10.1°C 66% Calm Calm 3.8 mph6.1 kmh 29.72 in1006.4 mb 0.00 in0.0 mm 0.00 in/hr0.0 mm/hr 0.00 in0.0 mm
05:45 PM 61.7°F16.5°C 50.2°F10.1°C 66% 0.7 mph WSW1.1 kmh WSW 3.8 mph6.1 kmh 29.72 in1006.4 mb 0.00 in0.0 mm 0.00 in/hr0.0 mm/hr 0.00 in0.0 mm
05:50 PM 62.1°F16.7°C 50.6°F10.3°C 66% Calm Calm 4.5 mph7.2 kmh 29.72 in1006.4 mb 0.00 in0.0 mm 0.00 in/hr0.0 mm/hr 0.00 in0.0 mm
05:55 PM 62.2°F16.8°C 50.8°F10.4°C 66% Calm Calm 4.5 mph7.2 kmh 29.72 in1006.4 mb 0.00 in0.0 mm 0.00 in/hr0.0 mm/hr 0.00 in0.0 mm
06:00 PM 62.2°F16.8°C 50.8°F10.4°C 66% 0.7 mph WNW1.1 kmh WNW 4.5 mph7.2 kmh 29.73 in1006.8 mb 0.00 in0.0 mm 0.00 in/hr0.0 mm/hr 0.00 in0.0 mm
06:05 PM 62.2°F16.8°C 50.8°F10.4°C 66% 0.7 mph WNW1.1 kmh WNW 4.5 mph7.2 kmh 29.73 in1006.8 mb 0.00 in0.0 mm 0.00 in/hr0.0 mm/hr 0.00 in0.0 mm
06:10 PM 62.6°F17.0°C 50.3°F10.2°C 64% Calm Calm 4.5 mph7.2 kmh 29.73 in1006.8 mb 0.00 in0.0 mm 0.00 in/hr0.0 mm/hr 0.00 in0.0 mm
06:15 PM 62.8°F17.1°C 50.0°F10.0°C 63% 0.7 mph W1.1 kmh W 4.5 mph7.2 kmh 29.73 in1006.8 mb 0.00 in0.0 mm 0.00 in/hr0.0 mm/hr 0.00 in0.0 mm
06:20 PM 62.8°F17.1°C 50.0°F10.0°C 63% 0.7 mph W1.1 kmh W 4.5 mph7.2 kmh 29.73 in1006.8 mb 0.00 in0.0 mm 0.00 in/hr0.0 mm/hr 0.00 in0.0 mm
06:25 PM 62.8°F17.1°C 50.0°F10.0°C 63% Calm Calm 4.5 mph7.2 kmh 29.73 in1006.8 mb 0.00 in0.0 mm 0.00 in/hr0.0 mm/hr 0.00 in0.0 mm
06:30 PM 62.8°F17.1°C 50.0°F10.0°C 63% 2.2 mph WSW3.5 kmh WSW 6.0 mph9.7 kmh 29.73 in1006.8 mb 0.00 in0.0 mm 0.00 in/hr0.0 mm/hr 0.00 in0.0 mm
06:35 PM 63.0°F17.2°C 50.2°F10.1°C 63% 0.7 mph WSW1.1 kmh WSW 6.0 mph9.7 kmh 29.73 in1006.8 mb 0.00 in0.0 mm 0.00 in/hr0.0 mm/hr 0.00 in0.0 mm
06:40 PM 63.0°F17.2°C 49.8°F9.9°C 62% 1.6 mph ESE2.6 kmh ESE 5.4 mph8.7 kmh 29.73 in1006.8 mb 0.00 in0.0 mm 0.00 in/hr0.0 mm/hr 0.00 in0.0 mm
06:45 PM 63.0°F17.2°C 49.8°F9.9°C 62% 0.7 mph SE1.1 kmh SE 6.0 mph9.7 kmh 29.73 in1006.8 mb 0.00 in0.0 mm 0.00 in/hr0.0 mm/hr 0.00 in0.0 mm
06:50 PM 63.0°F17.2°C 49.8°F9.9°C 62% 0.7 mph SSE1.1 kmh SSE 6.0 mph9.7 kmh 29.73 in1006.8 mb 0.00 in0.0 mm 0.00 in/hr0.0 mm/hr 0.00 in0.0 mm
06:55 PM 62.8°F17.1°C 49.6°F9.8°C 62% 1.6 mph NW2.6 kmh NW 4.5 mph7.2 kmh 29.73 in1006.8 mb 0.00 in0.0 mm 0.00 in/hr0.0 mm/hr 0.00 in0.0 mm
07:00 PM 62.8°F17.1°C 49.6°F9.8°C 62% 0.7 mph NW1.1 kmh NW 4.5 mph7.2 kmh 29.73 in1006.8 mb 0.00 in0.0 mm 0.00 in/hr0.0 mm/hr 0.00 in0.0 mm
07:05 PM 62.8°F17.1°C 49.6°F9.8°C 62% 0.7 mph ENE1.1 kmh ENE 4.5 mph7.2 kmh 29.73 in1006.8 mb 0.00 in0.0 mm 0.00 in/hr0.0 mm/hr 0.00 in0.0 mm
07:10 PM 62.4°F16.9°C 49.7°F9.8°C 63% 1.6 mph E2.6 kmh E 4.5 mph7.2 kmh 29.74 in1007.1 mb 0.00 in0.0 mm 0.00 in/hr0.0 mm/hr 0.00 in0.0 mm
07:15 PM 62.2°F16.8°C 50.3°F10.2°C 65% 4.5 mph WSW7.2 kmh WSW 9.8 mph15.8 kmh 29.74 in1007.1 mb 0.00 in0.0 mm 0.00 in/hr0.0 mm/hr 0.00 in0.0 mm
07:20 PM 61.9°F16.6°C 50.8°F10.4°C 67% 0.7 mph SW1.1 kmh SW 9.8 mph15.8 kmh 29.74 in1007.1 mb 0.00 in0.0 mm 0.00 in/hr0.0 mm/hr 0.00 in0.0 mm
07:25 PM 61.3°F16.3°C 50.7°F10.4°C 68% 0.7 mph WSW1.1 kmh WSW 9.8 mph15.8 kmh 29.74 in1007.1 mb 0.00 in0.0 mm 0.00 in/hr0.0 mm/hr 0.00 in0.0 mm
07:30 PM 60.8°F16.0°C 51.0°F10.6°C 70% 0.7 mph WSW1.1 kmh WSW 6.0 mph9.7 kmh 29.74 in1007.1 mb 0.00 in0.0 mm 0.00 in/hr0.0 mm/hr 0.00 in0.0 mm
07:35 PM 60.3°F15.7°C 50.8°F10.4°C 71% 0.7 mph SW1.1 kmh SW 4.5 mph7.2 kmh 29.75 in1007.5 mb 0.00 in0.0 mm 0.00 in/hr0.0 mm/hr 0.00 in0.0 mm
07:40 PM 59.9°F15.5°C 50.9°F10.5°C 72% 0.7 mph WSW1.1 kmh WSW 4.5 mph7.2 kmh 29.74 in1007.1 mb 0.00 in0.0 mm 0.00 in/hr0.0 mm/hr 0.00 in0.0 mm
07:45 PM 59.7°F15.4°C 51.1°F10.6°C 73% Calm Calm 3.1 mph5.0 kmh 29.75 in1007.5 mb 0.00 in0.0 mm 0.00 in/hr0.0 mm/hr 0.00 in0.0 mm
07:50 PM 59.4°F15.2°C 51.1°F10.6°C 74% 0.7 mph WSW1.1 kmh WSW 3.1 mph5.0 kmh 29.75 in1007.5 mb 0.00 in0.0 mm 0.00 in/hr0.0 mm/hr 0.00 in0.0 mm
07:55 PM 59.4°F15.2°C 51.4°F10.8°C 75% 0.7 mph WSW1.1 kmh WSW 3.1 mph5.0 kmh 29.75 in1007.5 mb 0.00 in0.0 mm 0.00 in/hr0.0 mm/hr 0.00 in0.0 mm
08:00 PM 59.2°F15.1°C 51.3°F10.7°C 75% Calm Calm 2.2 mph3.5 kmh 29.75 in1007.5 mb 0.00 in0.0 mm 0.00 in/hr0.0 mm/hr 0.00 in0.0 mm
08:05 PM 59.2°F15.1°C 51.3°F10.7°C 75% Calm Calm 2.2 mph3.5 kmh 29.75 in1007.5 mb 0.00 in0.0 mm 0.00 in/hr0.0 mm/hr 0.00 in0.0 mm
08:10 PM 59.0°F15.0°C 51.8°F11.0°C 77% Calm Calm 0.7 mph1.1 kmh 29.75 in1007.5 mb 0.00 in0.0 mm 0.00 in/hr0.0 mm/hr 0.00 in0.0 mm
08:15 PM 58.8°F14.9°C 51.6°F10.9°C 77% Calm Calm 1.6 mph2.6 kmh 29.75 in1007.5 mb 0.00 in0.0 mm 0.00 in/hr0.0 mm/hr 0.00 in0.0 mm
08:20 PM 58.8°F14.9°C 52.0°F11.1°C 78% 0.7 mph ESE1.1 kmh ESE 1.6 mph2.6 kmh 29.75 in1007.5 mb 0.00 in0.0 mm 0.00 in/hr0.0 mm/hr 0.00 in0.0 mm
08:25 PM 58.6°F14.8°C 51.8°F11.0°C 78% 0.7 mph ESE1.1 kmh ESE 2.2 mph3.5 kmh 29.75 in1007.5 mb 0.00 in0.0 mm 0.00 in/hr0.0 mm/hr 0.00 in0.0 mm
08:30 PM 58.6°F14.8°C 51.8°F11.0°C 78% Calm Calm 2.2 mph3.5 kmh 29.75 in1007.5 mb 0.00 in0.0 mm 0.00 in/hr0.0 mm/hr 0.00 in0.0 mm
08:35 PM 58.6°F14.8°C 51.8°F11.0°C 78% Calm Calm 2.2 mph3.5 kmh 29.75 in1007.5 mb 0.00 in0.0 mm 0.00 in/hr0.0 mm/hr 0.00 in0.0 mm
08:40 PM 58.6°F14.8°C 52.2°F11.2°C 79% 0.7 mph SE1.1 kmh SE 2.2 mph3.5 kmh 29.76 in1007.8 mb 0.00 in0.0 mm 0.00 in/hr0.0 mm/hr 0.00 in0.0 mm
08:45 PM 58.6°F14.8°C 52.2°F11.2°C 79% Calm Calm 2.2 mph3.5 kmh 29.76 in1007.8 mb 0.00 in0.0 mm 0.00 in/hr0.0 mm/hr 0.00 in0.0 mm
08:50 PM 58.6°F14.8°C 52.2°F11.2°C 79% Calm Calm 2.2 mph3.5 kmh 29.76 in1007.8 mb 0.00 in0.0 mm 0.00 in/hr0.0 mm/hr 0.00 in0.0 mm
08:55 PM 58.6°F14.8°C 52.2°F11.2°C 79% Calm Calm 2.2 mph3.5 kmh 29.76 in1007.8 mb 0.00 in0.0 mm 0.00 in/hr0.0 mm/hr 0.00 in0.0 mm
09:00 PM 58.6°F14.8°C 52.2°F11.2°C 79% Calm Calm 2.2 mph3.5 kmh 29.76 in1007.8 mb 0.00 in0.0 mm 0.00 in/hr0.0 mm/hr 0.00 in0.0 mm
09:05 PM 58.6°F14.8°C 52.2°F11.2°C 79% Calm Calm 0.7 mph1.1 kmh 29.76 in1007.8 mb 0.00 in0.0 mm 0.00 in/hr0.0 mm/hr 0.00 in0.0 mm
09:10 PM 58.6°F14.8°C 52.2°F11.2°C 79% Calm Calm 1.6 mph2.6 kmh 29.76 in1007.8 mb 0.00 in0.0 mm 0.00 in/hr0.0 mm/hr 0.00 in0.0 mm
09:15 PM 58.5°F14.7°C 52.3°F11.3°C 80% Calm Calm 1.6 mph2.6 kmh 29.76 in1007.8 mb 0.00 in0.0 mm 0.00 in/hr0.0 mm/hr 0.00 in0.0 mm
09:20 PM 58.5°F14.7°C 52.0°F11.1°C 79% Calm Calm 3.1 mph5.0 kmh 29.76 in1007.8 mb 0.00 in0.0 mm 0.00 in/hr0.0 mm/hr 0.00 in0.0 mm
09:25 PM 58.6°F14.8°C 52.2°F11.2°C 79% Calm Calm 3.1 mph5.0 kmh 29.76 in1007.8 mb 0.00 in0.0 mm 0.00 in/hr0.0 mm/hr 0.00 in0.0 mm
09:30 PM 58.6°F14.8°C 52.2°F11.2°C 79% Calm Calm 2.2 mph3.5 kmh 29.76 in1007.8 mb 0.00 in0.0 mm 0.00 in/hr0.0 mm/hr 0.00 in0.0 mm
09:35 PM 58.6°F14.8°C 52.2°F11.2°C 79% Calm Calm 2.2 mph3.5 kmh 29.77 in1008.1 mb 0.00 in0.0 mm 0.00 in/hr0.0 mm/hr 0.00 in0.0 mm
09:40 PM 58.6°F14.8°C 52.2°F11.2°C 79% Calm Calm 1.6 mph2.6 kmh 29.76 in1007.8 mb 0.00 in0.0 mm 0.00 in/hr0.0 mm/hr 0.00 in0.0 mm
09:45 PM 58.6°F14.8°C 52.2°F11.2°C 79% Calm Calm 1.6 mph2.6 kmh 29.76 in1007.8 mb 0.00 in0.0 mm 0.00 in/hr0.0 mm/hr 0.00 in0.0 mm
09:50 PM 58.5°F14.7°C 52.0°F11.1°C 79% Calm Calm 1.6 mph2.6 kmh 29.77 in1008.1 mb 0.00 in0.0 mm 0.00 in/hr0.0 mm/hr 0.00 in0.0 mm
09:55 PM 58.5°F14.7°C 51.6°F10.9°C 78% Calm Calm 1.6 mph2.6 kmh 29.77 in1008.1 mb 0.00 in0.0 mm 0.00 in/hr0.0 mm/hr 0.00 in0.0 mm
10:00 PM 58.5°F14.7°C 51.6°F10.9°C 78% Calm Calm 1.6 mph2.6 kmh 29.76 in1007.8 mb 0.00 in0.0 mm 0.00 in/hr0.0 mm/hr 0.00 in0.0 mm
10:05 PM 58.5°F14.7°C 51.6°F10.9°C 78% Calm Calm 1.6 mph2.6 kmh 29.77 in1008.1 mb 0.00 in0.0 mm 0.00 in/hr0.0 mm/hr 0.00 in0.0 mm
10:10 PM 58.3°F14.6°C 51.5°F10.8°C 78% Calm Calm 0.7 mph1.1 kmh 29.77 in1008.1 mb 0.00 in0.0 mm 0.00 in/hr0.0 mm/hr 0.00 in0.0 mm
10:15 PM 58.3°F14.6°C 51.5°F10.8°C 78% Calm Calm 0.7 mph1.1 kmh 29.77 in1008.1 mb 0.00 in0.0 mm 0.00 in/hr0.0 mm/hr 0.00 in0.0 mm
10:20 PM 58.3°F14.6°C 51.5°F10.8°C 78% Calm Calm 1.6 mph2.6 kmh 29.77 in1008.1 mb 0.00 in0.0 mm 0.00 in/hr0.0 mm/hr 0.00 in0.0 mm
10:25 PM 58.3°F14.6°C 51.5°F10.8°C 78% Calm Calm 1.6 mph2.6 kmh 29.77 in1008.1 mb 0.00 in0.0 mm 0.00 in/hr0.0 mm/hr 0.00 in0.0 mm
10:30 PM 58.3°F14.6°C 51.5°F10.8°C 78% Calm Calm 1.6 mph2.6 kmh 29.77 in1008.1 mb 0.00 in0.0 mm 0.00 in/hr0.0 mm/hr 0.00 in0.0 mm
10:35 PM 58.3°F14.6°C 51.5°F10.8°C 78% Calm Calm 1.6 mph2.6 kmh 29.77 in1008.1 mb 0.00 in0.0 mm 0.00 in/hr0.0 mm/hr 0.00 in0.0 mm
10:40 PM 58.1°F14.5°C 51.3°F10.7°C 78% Calm Calm 1.6 mph2.6 kmh 29.77 in1008.1 mb 0.00 in0.0 mm 0.00 in/hr0.0 mm/hr 0.00 in0.0 mm
10:45 PM 58.1°F14.5°C 51.3°F10.7°C 78% Calm Calm 0.7 mph1.1 kmh 29.77 in1008.1 mb 0.00 in0.0 mm 0.00 in/hr0.0 mm/hr 0.00 in0.0 mm
10:50 PM 58.1°F14.5°C 51.3°F10.7°C 78% Calm Calm 0.7 mph1.1 kmh 29.77 in1008.1 mb 0.00 in0.0 mm 0.00 in/hr0.0 mm/hr 0.00 in0.0 mm
10:55 PM 57.9°F14.4°C 51.1°F10.6°C 78% Calm Calm 1.6 mph2.6 kmh 29.77 in1008.1 mb 0.00 in0.0 mm 0.00 in/hr0.0 mm/hr 0.00 in0.0 mm
11:00 PM 57.9°F14.4°C 51.1°F10.6°C 78% Calm Calm 2.2 mph3.5 kmh 29.77 in1008.1 mb 0.00 in0.0 mm 0.00 in/hr0.0 mm/hr 0.00 in0.0 mm
11:05 PM 57.9°F14.4°C 51.1°F10.6°C 78% Calm Calm 2.2 mph3.5 kmh 29.77 in1008.1 mb 0.00 in0.0 mm 0.00 in/hr0.0 mm/hr 0.00 in0.0 mm
11:10 PM 58.1°F14.5°C 51.3°F10.7°C 78% 0.7 mph E1.1 kmh E 3.1 mph5.0 kmh 29.77 in1008.1 mb 0.00 in0.0 mm 0.00 in/hr0.0 mm/hr 0.00 in0.0 mm
11:15 PM 58.1°F14.5°C 50.9°F10.5°C 77% Calm Calm 3.1 mph5.0 kmh 29.78 in1008.5 mb 0.00 in0.0 mm 0.00 in/hr0.0 mm/hr 0.00 in0.0 mm
11:20 PM 58.1°F14.5°C 50.9°F10.5°C 77% Calm Calm 3.1 mph5.0 kmh 29.78 in1008.5 mb 0.00 in0.0 mm 0.00 in/hr0.0 mm/hr 0.00 in0.0 mm
11:25 PM 57.9°F14.4°C 50.8°F10.4°C 77% Calm Calm 1.6 mph2.6 kmh 29.77 in1008.1 mb 0.00 in0.0 mm 0.00 in/hr0.0 mm/hr 0.00 in0.0 mm
11:30 PM 58.1°F14.5°C 50.6°F10.3°C 76% Calm Calm 1.6 mph2.6 kmh 29.78 in1008.5 mb 0.00 in0.0 mm 0.00 in/hr0.0 mm/hr 0.00 in0.0 mm
11:35 PM 57.9°F14.4°C 50.4°F10.2°C 76% Calm Calm 1.6 mph2.6 kmh 29.78 in1008.5 mb 0.00 in0.0 mm 0.00 in/hr0.0 mm/hr 0.00 in0.0 mm
11:40 PM 57.9°F14.4°C 50.8°F10.4°C 77% Calm Calm 3.1 mph5.0 kmh 29.78 in1008.5 mb 0.00 in0.0 mm 0.00 in/hr0.0 mm/hr 0.00 in0.0 mm
11:45 PM 57.9°F14.4°C 50.8°F10.4°C 77% Calm Calm 3.1 mph5.0 kmh 29.78 in1008.5 mb 0.00 in0.0 mm 0.00 in/hr0.0 mm/hr 0.00 in0.0 mm
11:50 PM 57.9°F14.4°C 50.8°F10.4°C 77% Calm Calm 2.2 mph3.5 kmh 29.78 in1008.5 mb 0.00 in0.0 mm 0.00 in/hr0.0 mm/hr 0.00 in0.0 mm
11:55 PM 57.9°F14.4°C 50.8°F10.4°C 77% Calm Calm 1.6 mph2.6 kmh 29.77 in1008.1 mb 0.00 in0.0 mm 0.00 in/hr0.0 mm/hr 0.00 in0.0 mm